Time;durP1;ratioP1;P1;durP2;ratioP2;P2;SDS_P1;SDS_P2;PMS_P1;PMS_P2;Temp;Humidity;BMP_temperature;BMP_pressure;BME280_temperature;BME280_humidity;BME280_pressure;Samples;Min_cycle;Max_cycle;Signal;HPM_P1;HPM_P2
2023/04/17 00:02:43;;;;;;;20.30;14.50;;;;;;;11.52;62.86;99128.27;222654;183;147417;-75
2023/04/17 00:07:48;;;;;;;19.30;14.30;;;;;;;11.45;63.02;99128.19;223764;183;138793;-75
2023/04/17 00:12:51;;;;;;;23.10;13.80;;;;;;;11.34;63.32;99126.57;223829;183;137263;-73
2023/04/17 00:17:55;;;;;;;18.20;12.70;;;;;;;11.31;63.50;99133.36;223705;183;146990;-74
2023/04/17 00:22:58;;;;;;;17.10;12.60;;;;;;;11.32;63.68;99131.70;221408;182;138951;-76
2023/04/17 00:28:02;;;;;;;18.50;13.90;;;;;;;11.35;63.78;99129.40;223838;183;137172;-75
2023/04/17 00:33:05;;;;;;;22.00;13.80;;;;;;;11.33;63.80;99125.41;223809;183;147221;-75
2023/04/17 00:38:09;;;;;;;19.20;13.40;;;;;;;11.33;63.95;99123.44;223826;183;138368;-73
2023/04/17 00:43:13;;;;;;;20.00;13.50;;;;;;;11.33;64.13;99124.31;223818;183;138313;-73
2023/04/17 00:48:17;;;;;;;16.90;12.40;;;;;;;11.34;64.29;99120.71;223881;183;147009;-75
2023/04/17 00:53:21;;;;;;;17.20;12.90;;;;;;;11.34;64.40;99123.91;223836;183;138501;-75
2023/04/17 00:58:25;;;;;;;16.60;12.30;;;;;;;11.34;64.49;99125.90;223721;183;137044;-74
2023/04/17 01:03:31;;;;;;;16.60;12.40;;;;;;;11.34;64.59;99126.03;219666;183;147300;-78
2023/04/17 01:08:45;;;;;;;18.40;12.20;;;;;;;11.34;64.75;99128.05;223766;182;138863;-75
2023/04/17 01:13:51;;;;;;;15.40;11.50;;;;;;;11.30;64.92;99125.98;223719;182;137878;-75
2023/04/17 01:18:55;;;;;;;18.30;12.10;;;;;;;11.24;65.02;99121.05;222739;183;147204;-75
2023/04/17 01:24:03;;;;;;;15.70;10.90;;;;;;;11.23;65.13;99126.79;223754;183;138695;-74
2023/04/17 01:29:07;;;;;;;16.20;12.10;;;;;;;11.26;65.18;99126.96;223871;182;138271;-74
2023/04/17 01:34:12;;;;;;;16.30;11.20;;;;;;;11.30;65.02;99124.71;221231;183;147471;-74
2023/04/17 01:39:16;;;;;;;16.10;12.00;;;;;;;11.27;64.90;99121.00;223800;183;138364;-73
2023/04/17 01:44:20;;;;;;;15.70;12.00;;;;;;;11.21;64.87;99116.46;223770;183;137541;-76
2023/04/17 01:49:23;;;;;;;15.70;12.20;;;;;;;11.16;64.92;99116.05;223779;183;147661;-77
2023/04/17 01:54:27;;;;;;;17.00;12.60;;;;;;;11.09;64.95;99114.84;223756;183;138482;-76
2023/04/17 01:59:33;;;;;;;15.30;12.50;;;;;;;11.04;65.16;99115.89;223795;183;137078;-76
2023/04/17 02:04:37;;;;;;;17.40;11.40;;;;;;;10.96;65.26;99120.11;221833;183;147565;-75
2023/04/17 02:10:02;;;;;;;16.40;12.50;;;;;;;10.89;65.51;99130.33;223829;183;138594;-75
2023/04/17 02:15:06;;;;;;;15.30;12.00;;;;;;;10.80;65.49;99133.39;223816;183;138070;-74
2023/04/17 02:20:10;;;;;;;14.60;11.80;;;;;;;10.68;65.72;99134.98;223649;183;148918;-74
2023/04/17 02:25:14;;;;;;;17.00;11.80;;;;;;;10.62;65.89;99135.89;223808;182;138118;-74
2023/04/17 02:30:18;;;;;;;16.40;11.30;;;;;;;10.59;66.02;99130.58;221816;184;137603;-77
2023/04/17 02:35:24;;;;;;;17.30;11.90;;;;;;;10.63;66.39;99135.83;221733;183;148371;-73
2023/04/17 02:40:27;;;;;;;23.30;12.40;;;;;;;10.67;66.25;99139.68;223775;183;138827;-74
2023/04/17 02:45:36;;;;;;;16.10;12.10;;;;;;;10.64;66.28;99137.90;223738;183;138357;-74
2023/04/17 02:50:39;;;;;;;20.60;12.50;;;;;;;10.60;66.52;99132.05;223828;182;147276;-74
2023/04/17 02:55:46;;;;;;;15.60;12.00;;;;;;;10.60;66.87;99133.34;222624;183;138474;-76
2023/04/17 03:00:51;;;;;;;17.10;12.40;;;;;;;10.59;66.88;99130.92;223299;183;137652;-77
2023/04/17 03:05:54;;;;;;;17.10;12.90;;;;;;;10.55;67.02;99137.72;222579;183;147338;-71
2023/04/17 03:10:58;;;;;;;35.00;25.50;;;;;;;10.53;67.37;99138.39;220971;182;139537;-72
2023/04/17 03:16:04;;;;;;;32.60;24.80;;;;;;;10.56;67.33;99150.08;223759;183;138073;-72
2023/04/17 03:21:09;;;;;;;60.60;43.10;;;;;;;10.56;67.52;99156.45;223677;184;147532;-73
2023/04/17 03:26:13;;;;;;;15.30;12.30;;;;;;;10.61;67.76;99160.10;223779;183;139829;-71
2023/04/17 03:31:17;;;;;;;16.00;12.70;;;;;;;10.65;67.60;99158.25;223794;183;137383;-72
2023/04/17 03:36:20;;;;;;;18.70;13.10;;;;;;;10.69;67.67;99158.85;223769;183;147167;-74
2023/04/17 03:41:24;;;;;;;18.10;13.40;;;;;;;10.72;67.57;99154.83;220311;183;139503;-73
2023/04/17 03:46:27;;;;;;;17.90;13.60;;;;;;;10.71;67.40;99160.37;221005;183;137568;-78
2023/04/17 03:51:31;;;;;;;85.00;63.30;;;;;;;10.66;67.43;99163.00;220800;183;147417;-73
2023/04/17 03:56:41;;;;;;;18.90;14.80;;;;;;;10.60;67.52;99175.40;223616;183;138784;-73
2023/04/17 04:01:45;;;;;;;17.60;13.00;;;;;;;10.56;67.79;99182.40;223895;183;138317;-73
2023/04/17 04:06:56;;;;;;;17.30;13.20;;;;;;;10.54;68.17;99183.75;223849;183;147676;-73
2023/04/17 04:12:00;;;;;;;18.50;13.20;;;;;;;10.54;68.40;99179.80;223805;183;139143;-72
2023/04/17 04:17:07;;;;;;;62.60;45.70;;;;;;;10.63;68.63;99180.39;223782;183;137808;-74
2023/04/17 04:22:12;;;;;;;23.10;18.20;;;;;;;10.76;68.63;99185.77;223842;183;147703;-74
2023/04/17 04:33:45;;;;;;;19.60;13.50;;;;;;;10.86;68.15;99188.17;223846;182;137907;-73
2023/04/17 04:38:49;;;;;;;19.80;14.20;;;;;;;10.87;68.22;99191.85;223787;183;147385;-72
2023/04/17 04:44:02;;;;;;;20.10;13.90;;;;;;;10.89;68.33;99193.84;223786;183;138313;-72
2023/04/17 04:49:07;;;;;;;17.90;13.90;;;;;;;10.91;68.24;99189.11;223792;183;137358;-75
2023/04/17 04:54:11;;;;;;;18.00;13.10;;;;;;;10.94;68.48;99190.02;223820;183;146408;-73
2023/04/17 05:05:44;;;;;;;20.80;13.20;;;;;;;11.04;68.39;99189.03;221387;182;137767;-74
2023/04/17 05:10:49;;;;;;;18.30;13.70;;;;;;;11.08;68.37;99194.80;223770;183;147305;-74
2023/04/17 05:15:53;;;;;;;19.60;14.00;;;;;;;11.14;68.23;99190.73;223743;182;138903;-75
2023/04/17 05:21:26;;;;;;;20.70;14.70;;;;;;;11.16;68.48;99192.96;223695;183;137501;-73
2023/04/17 05:26:33;;;;;;;24.90;15.00;;;;;;;11.19;68.59;99190.79;223017;182;147491;-74
2023/04/17 05:31:39;;;;;;;20.90;14.90;;;;;;;11.24;68.77;99194.22;223852;183;138841;-74
2023/04/17 05:36:49;;;;;;;19.80;14.20;;;;;;;11.28;68.96;99183.85;223758;183;137777;-74
2023/04/17 05:41:53;;;;;;;20.80;14.80;;;;;;;11.31;68.83;99178.98;220127;184;147508;-75
2023/04/17 05:46:58;;;;;;;19.10;13.80;;;;;;;11.36;68.80;99189.52;219895;182;139151;-75
2023/04/17 05:52:02;;;;;;;20.90;14.60;;;;;;;11.41;68.65;99200.23;220304;183;137725;-74
2023/04/17 05:57:06;;;;;;;24.30;17.30;;;;;;;11.48;68.79;99212.94;220572;183;147968;-74
2023/04/17 06:02:10;;;;;;;28.90;17.40;;;;;;;11.59;68.74;99214.17;223709;183;138499;-74
2023/04/17 06:07:13;;;;;;;26.20;17.00;;;;;;;11.68;68.64;99218.05;223412;183;136965;-77
2023/04/17 06:12:17;;;;;;;23.90;17.20;;;;;;;11.72;68.59;99216.05;221833;182;148019;-74
2023/04/17 06:17:21;;;;;;;23.10;16.80;;;;;;;11.75;68.81;99215.16;223845;184;138207;-74
2023/04/17 06:22:24;;;;;;;24.40;17.50;;;;;;;11.76;68.80;99220.60;223565;183;137955;-73
2023/04/17 06:27:29;;;;;;;24.00;16.50;;;;;;;11.76;68.87;99217.70;223763;183;147302;-75
2023/04/17 06:32:32;;;;;;;25.00;15.40;;;;;;;11.81;68.89;99227.02;222790;183;138765;-75
2023/04/17 06:37:36;;;;;;;23.00;15.80;;;;;;;11.89;69.11;99229.20;217904;182;138148;-76
2023/04/17 06:42:39;;;;;;;22.10;15.80;;;;;;;11.98;69.01;99231.98;218103;183;147428;-76
2023/04/17 06:47:46;;;;;;;22.90;16.00;;;;;;;12.04;68.94;99239.28;219630;183;138837;-76
2023/04/17 06:52:52;;;;;;;24.70;16.20;;;;;;;12.06;69.10;99238.23;221676;183;137400;-77
2023/04/17 06:57:55;;;;;;;21.80;14.00;;;;;;;12.08;69.14;99234.87;222906;182;147292;-76
2023/04/17 07:02:59;;;;;;;23.60;13.70;;;;;;;12.21;69.39;99237.82;223676;183;139409;-74
2023/04/17 07:08:03;;;;;;;18.70;13.10;;;;;;;12.36;69.50;99234.30;223769;183;137590;-71
2023/04/17 07:13:07;;;;;;;18.30;12.70;;;;;;;12.52;69.20;99238.80;223862;183;146956;-72
2023/04/17 07:18:10;;;;;;;21.40;13.80;;;;;;;12.66;68.99;99236.39;222165;183;138684;-76
2023/04/17 07:23:14;;;;;;;21.90;14.10;;;;;;;12.77;68.52;99233.69;218083;183;137428;-74
2023/04/17 07:28:18;;;;;;;23.60;15.20;;;;;;;12.83;68.32;99234.02;219246;183;147303;-75
2023/04/17 07:33:21;;;;;;;23.40;15.20;;;;;;;12.82;68.31;99238.35;222957;183;139073;-70
2023/04/17 07:38:25;;;;;;;272.80;179.80;;;;;;;12.84;68.46;99243.16;223556;183;137471;-73
2023/04/17 07:43:29;;;;;;;30.80;20.40;;;;;;;12.97;68.98;99250.46;223784;183;146994;-72
2023/04/17 07:48:32;;;;;;;20.30;14.20;;;;;;;13.08;68.98;99244.95;223817;182;138540;-73
2023/04/17 07:53:37;;;;;;;21.10;14.40;;;;;;;13.12;68.78;99252.51;223783;183;138304;-73
2023/04/17 07:58:41;;;;;;;49.20;33.30;;;;;;;13.18;68.50;99248.31;223778;183;147860;-73
2023/04/17 08:09:36;;;;;;;21.20;15.20;;;;;;;13.37;68.13;99259.31;223803;182;138753;-72
2023/04/17 08:14:39;;;;;;;22.50;17.00;;;;;;;13.36;68.12;99256.42;223776;183;146984;-73
2023/04/17 08:19:42;;;;;;;21.90;16.20;;;;;;;13.35;68.15;99257.38;223701;183;138437;-73
2023/04/17 08:24:48;;;;;;;23.00;16.60;;;;;;;13.34;68.15;99263.13;223837;183;139256;-73
2023/04/17 08:29:52;;;;;;;23.50;17.00;;;;;;;13.29;68.64;99263.13;223709;183;147127;-74
2023/04/17 08:34:57;;;;;;;21.10;16.80;;;;;;;13.24;69.58;99264.49;223747;182;138854;-73
2023/04/17 08:40:09;;;;;;;20.40;17.00;;;;;;;13.26;70.02;99265.64;223617;183;139815;-73
2023/04/17 08:45:19;;;;;;;22.30;17.40;;;;;;;13.25;70.39;99272.84;223680;182;147615;-73
2023/04/17 08:50:23;;;;;;;22.00;17.40;;;;;;;13.21;70.46;99278.75;223837;182;138344;-73
2023/04/17 08:55:28;;;;;;;24.10;18.80;;;;;;;13.17;70.71;99282.43;221993;183;137472;-71
2023/04/17 09:00:34;;;;;;;22.20;17.20;;;;;;;13.11;71.07;99277.52;223776;183;147162;-74
2023/04/17 09:05:40;;;;;;;;;;;;;;;13.04;71.35;99280.46;223698;183;138625;-71
2023/04/17 09:10:48;;;;;;;21.40;17.00;;;;;;;13.02;71.80;99283.63;223824;183;130895;-74
2023/04/17 09:16:11;;;;;;;24.00;17.70;;;;;;;13.06;71.98;99280.89;223651;183;147663;-71
2023/04/17 09:21:19;;;;;;;22.80;17.90;;;;;;;13.11;72.01;99277.66;223589;183;139166;-71
2023/04/17 09:26:25;;;;;;;21.60;17.70;;;;;;;13.15;72.15;99278.12;223778;183;137715;-72
2023/04/17 09:31:30;;;;;;;22.30;18.70;;;;;;;13.18;72.18;99279.13;223696;182;147335;-72
2023/04/17 09:36:37;;;;;;;20.90;16.90;;;;;;;13.28;72.36;99278.48;223475;183;138935;-71
2023/04/17 09:41:40;;;;;;;19.10;15.50;;;;;;;13.37;72.44;99279.63;223599;183;138415;-72
2023/04/17 09:46:46;;;;;;;20.00;15.10;;;;;;;13.52;72.58;99276.30;223754;183;148841;-75
2023/04/17 09:51:51;;;;;;;22.30;15.50;;;;;;;13.69;72.23;99270.08;223600;183;138905;-79
2023/04/17 09:56:57;;;;;;;53.80;40.50;;;;;;;13.82;72.09;99272.02;221601;183;138455;-77
2023/04/17 10:02:02;;;;;;;19.20;13.40;;;;;;;13.91;71.32;99268.70;223786;183;149980;-82
2023/04/17 10:07:06;;;;;;;15.80;13.90;;;;;;;13.87;70.52;99275.95;223722;183;138776;-80
2023/04/17 10:12:12;;;;;;;12.30;10.50;;;;;;;13.84;70.33;99278.44;223772;183;138378;-81
2023/04/17 10:17:30;;;;;;;48.10;37.30;;;;;;;13.92;70.31;99274.53;223751;182;147825;-83
2023/04/17 10:22:39;;;;;;;13.40;10.40;;;;;;;14.09;69.43;99272.23;223649;182;138690;-77
2023/04/17 10:27:45;;;;;;;13.20;10.20;;;;;;;14.20;68.50;99271.57;223789;183;137359;-78
2023/04/17 10:33:28;;;;;;;15.40;11.00;;;;;;;14.23;68.19;99269.55;223768;183;147325;-80
2023/04/17 10:38:35;;;;;;;14.10;10.80;;;;;;;14.23;67.87;99271.16;223348;185;138427;-79
2023/04/17 10:43:40;;;;;;;14.20;11.00;;;;;;;14.25;67.86;99269.26;223743;183;137889;-77
2023/04/17 10:48:49;;;;;;;14.70;10.10;;;;;;;14.18;67.64;99272.45;223788;180;147020;-77
2023/04/17 10:53:52;;;;;;;12.60;9.00;;;;;;;14.09;67.88;99274.15;223132;183;138937;-78
2023/04/17 10:59:01;;;;;;;11.90;8.50;;;;;;;14.02;68.03;99273.42;218004;182;137105;-80
2023/04/17 11:04:05;;;;;;;10.70;8.10;;;;;;;14.00;68.11;99268.95;223832;183;147568;-79
2023/04/17 11:09:09;;;;;;;283.60;191.30;;;;;;;14.02;68.51;99271.50;223674;182;139418;-79
2023/04/17 11:14:16;;;;;;;15.20;9.30;;;;;;;14.12;68.37;99271.10;223815;183;137523;-79
2023/04/17 11:19:23;;;;;;;15.00;9.30;;;;;;;14.06;67.90;99272.08;223758;183;148136;-79
2023/04/17 11:24:29;;;;;;;14.30;9.30;;;;;;;13.97;68.06;99275.58;223412;183;138304;-78
2023/04/17 11:29:32;;;;;;;13.40;9.70;;;;;;;13.90;68.02;99276.44;222383;182;137877;-80
2023/04/17 11:34:36;;;;;;;29.30;25.40;;;;;;;13.79;68.19;99279.73;222640;182;146835;-78
2023/04/17 11:39:41;;;;;;;28.70;21.20;;;;;;;13.74;69.01;99273.16;223809;183;137645;-77
2023/04/17 11:44:45;;;;;;;14.20;8.50;;;;;;;13.74;68.92;99276.88;223808;183;137855;-78
2023/04/17 11:49:48;;;;;;;15.20;9.60;;;;;;;13.75;69.03;99280.34;223817;183;147648;-78
2023/04/17 11:54:57;;;;;;;14.70;9.40;;;;;;;13.84;69.08;99281.90;223741;183;138543;-79
2023/04/17 12:00:15;;;;;;;13.40;9.40;;;;;;;13.84;69.17;99277.23;222563;183;136998;-78
2023/04/17 12:05:18;;;;;;;14.40;9.00;;;;;;;13.83;69.49;99274.45;223802;183;147137;-78
2023/04/17 12:10:22;;;;;;;16.90;9.50;;;;;;;13.76;69.51;99275.46;223171;183;138284;-80
2023/04/17 12:15:26;;;;;;;18.40;12.40;;;;;;;13.72;69.88;99279.69;223158;183;137463;-78
2023/04/17 12:20:35;;;;;;;12.00;7.40;;;;;;;13.70;69.80;99282.49;219413;183;147362;-78
2023/04/17 12:25:38;;;;;;;10.10;7.00;;;;;;;13.70;69.64;99280.38;218669;183;139406;-77
2023/04/17 12:30:41;;;;;;;10.20;7.50;;;;;;;13.71;69.64;99279.04;223845;183;137701;-77
2023/04/17 12:35:45;;;;;;;12.40;8.50;;;;;;;13.69;69.81;99274.51;223645;184;147158;-78
2023/04/17 12:40:48;;;;;;;12.40;8.60;;;;;;;13.72;69.98;99273.79;223712;183;138326;-78
2023/04/17 12:45:52;;;;;;;105.10;91.50;;;;;;;13.69;69.90;99275.28;223810;183;137351;-81
2023/04/17 12:50:55;;;;;;;22.70;15.60;;;;;;;13.65;70.14;99273.77;223776;183;146868;-78
2023/04/17 12:55:59;;;;;;;12.10;8.00;;;;;;;13.60;70.38;99270.05;223629;183;138890;-77
2023/04/17 13:01:03;;;;;;;12.00;7.70;;;;;;;13.57;70.68;99267.52;222275;183;138992;-75
2023/04/17 13:06:07;;;;;;;11.20;7.70;;;;;;;13.54;70.49;99264.02;220326;183;147066;-73
2023/04/17 13:11:10;;;;;;;9.90;7.40;;;;;;;13.53;70.65;99264.29;223800;183;138912;-62
2023/04/17 13:16:13;;;;;;;11.00;7.90;;;;;;;13.50;70.60;99262.88;223746;183;136944;-62
2023/04/17 13:21:16;;;;;;;10.40;8.00;;;;;;;13.43;70.78;99259.95;223688;183;148396;-63
2023/04/17 13:26:19;;;;;;;222.40;171.70;;;;;;;13.44;71.28;99258.66;223626;183;138687;-63
2023/04/17 13:31:25;;;;;;;11.40;8.50;;;;;;;13.51;71.40;99258.00;223591;183;138654;-61
2023/04/17 13:36:28;;;;;;;12.00;8.50;;;;;;;13.53;71.12;99256.09;223766;183;147139;-61
2023/04/17 13:41:31;;;;;;;12.10;8.20;;;;;;;13.55;71.18;99256.30;223632;183;139565;-63
2023/04/17 13:46:35;;;;;;;10.30;7.40;;;;;;;13.62;71.18;99257.08;223664;183;137291;-61
2023/04/17 13:51:38;;;;;;;9.10;7.20;;;;;;;13.59;70.95;99258.51;223793;183;146847;-61
2023/04/17 13:56:41;;;;;;;8.60;6.40;;;;;;;13.57;71.23;99255.64;223639;183;139148;-64
2023/04/17 14:01:44;;;;;;;8.10;5.60;;;;;;;13.55;70.86;99255.03;223667;183;137167;-64
2023/04/17 14:06:49;;;;;;;8.50;5.90;;;;;;;13.48;70.99;99259.95;223554;183;146875;-62
2023/04/17 14:11:52;;;;;;;255.30;159.00;;;;;;;13.49;70.96;99255.81;223428;217;138399;-62
2023/04/17 14:16:56;;;;;;;10.80;7.70;;;;;;;13.46;70.56;99257.41;221704;184;138146;-62
2023/04/17 14:21:59;;;;;;;8.40;5.90;;;;;;;13.34;70.31;99255.07;223546;183;146812;-62
2023/04/17 14:27:02;;;;;;;8.60;5.50;;;;;;;13.28;70.50;99252.53;223488;184;139684;-63
2023/04/17 14:32:05;;;;;;;9.30;6.20;;;;;;;13.20;70.61;99253.76;223407;183;137784;-64
2023/04/17 14:37:08;;;;;;;11.50;5.50;;;;;;;13.14;71.16;99248.80;223508;183;147953;-63
2023/04/17 14:42:11;;;;;;;310.90;234.80;;;;;;;13.05;71.30;99253.36;223530;183;138728;-64
2023/04/17 14:47:15;;;;;;;11.90;7.30;;;;;;;13.12;71.88;99252.88;223511;217;138345;-64
2023/04/17 14:52:18;;;;;;;154.60;121.20;;;;;;;13.14;71.67;99247.90;223492;184;147124;-63
2023/04/17 14:57:23;;;;;;;10.70;7.80;;;;;;;13.15;72.06;99246.03;223576;184;138805;-64
2023/04/17 15:02:26;;;;;;;8.50;5.80;;;;;;;13.12;72.01;99244.70;223509;185;137432;-65
2023/04/17 15:07:30;;;;;;;9.50;5.50;;;;;;;13.03;72.24;99249.70;223558;184;147222;-65
2023/04/17 15:12:33;;;;;;;9.00;5.40;;;;;;;12.99;72.75;99250.55;223465;183;138916;-65
2023/04/17 15:17:36;;;;;;;9.00;5.90;;;;;;;13.00;72.89;99247.93;223621;217;141507;-63
2023/04/17 15:22:39;;;;;;;7.70;5.80;;;;;;;12.97;73.06;99245.13;223525;184;147590;-65
2023/04/17 15:27:42;;;;;;;8.70;6.20;;;;;;;12.96;73.24;99245.56;223489;194;138385;-64
2023/04/17 15:32:45;;;;;;;9.40;6.80;;;;;;;12.90;73.43;99246.87;223563;184;137017;-62
2023/04/17 15:37:49;;;;;;;8.60;6.40;;;;;;;12.90;73.50;99248.85;223483;184;146765;-63
2023/04/17 15:42:52;;;;;;;8.60;6.10;;;;;;;12.91;73.85;99248.80;223515;183;138659;-63
2023/04/17 15:47:55;;;;;;;8.90;6.50;;;;;;;12.91;73.92;99250.52;223657;194;137537;-62
2023/04/17 15:52:59;;;;;;;5.80;4.30;;;;;;;12.90;73.46;99250.08;223622;210;147040;-64
2023/04/17 15:58:03;;;;;;;9.00;7.00;;;;;;;12.86;73.46;99251.77;223516;184;138442;-64
2023/04/17 16:03:06;;;;;;;6.30;4.00;;;;;;;12.83;73.16;99250.42;223420;189;137136;-65
2023/04/17 16:08:10;;;;;;;5.60;3.70;;;;;;;12.71;73.26;99252.77;223447;183;146872;-64
2023/04/17 16:13:14;;;;;;;2.80;2.50;;;;;;;12.69;73.37;99250.09;223200;183;139065;-64
2023/04/17 16:18:18;;;;;;;253.60;210.90;;;;;;;12.68;73.39;99256.18;223445;183;137878;-63
2023/04/17 16:23:21;;;;;;;6.00;4.30;;;;;;;12.73;73.59;99255.13;223601;216;147461;-66
2023/04/17 16:28:25;;;;;;;4.30;3.40;;;;;;;12.71;73.21;99258.84;223523;217;139573;-64
2023/04/17 16:33:31;;;;;;;6.70;3.10;;;;;;;12.70;73.28;99262.84;223552;183;138158;31
2023/04/17 16:38:38;;;;;;;3.50;2.80;;;;;;;12.66;73.37;99263.80;223299;184;147188;-77
2023/04/17 16:43:41;;;;;;;3.70;2.40;;;;;;;12.68;73.39;99264.60;223300;185;138991;-79
2023/04/17 16:48:45;;;;;;;3.70;2.20;;;;;;;12.64;73.42;99272.52;223355;184;137598;-81
2023/04/17 16:53:49;;;;;;;4.00;2.60;;;;;;;12.65;73.38;99271.55;223400;218;146835;-79
2023/04/17 16:58:53;;;;;;;47.60;38.00;;;;;;;12.64;73.66;99274.13;223440;184;138709;-76
2023/04/17 17:03:57;;;;;;;5.50;4.00;;;;;;;12.67;73.58;99275.49;223626;183;137383;-76
2023/04/17 17:09:01;;;;;;;3.80;2.90;;;;;;;12.55;73.48;99277.38;223517;185;148931;-76
2023/04/17 17:14:04;;;;;;;5.80;2.80;;;;;;;12.49;73.54;99281.89;223386;184;138667;-76
2023/04/17 17:19:07;;;;;;;4.40;3.20;;;;;;;12.45;73.79;99284.96;223415;184;137911;-77
2023/04/17 17:24:12;;;;;;;4.60;3.40;;;;;;;12.46;73.71;99289.34;223092;184;147463;-77
2023/04/17 17:29:16;;;;;;;4.10;3.20;;;;;;;12.42;73.78;99286.42;223172;185;138448;-79
2023/04/17 17:34:20;;;;;;;5.20;3.30;;;;;;;12.38;74.01;99294.89;222487;185;138417;-78
2023/04/17 17:39:53;;;;;;;4.50;3.40;;;;;;;12.30;74.20;99298.20;221336;184;147499;-77
2023/04/17 17:44:56;;;;;;;6.90;4.90;;;;;;;12.28;74.43;99299.44;223356;183;138914;-77
2023/04/17 17:50:00;;;;;;;6.80;4.20;;;;;;;12.26;74.52;99299.54;223678;183;136896;-77
2023/04/17 17:55:24;;;;;;;143.40;98.40;;;;;;;12.35;75.29;99307.36;223135;188;147797;-80
2023/04/17 18:00:28;;;;;;;10.30;5.80;;;;;;;12.47;74.75;99315.13;222096;183;138567;-79
2023/04/17 18:05:45;;;;;;;6.40;4.30;;;;;;;12.43;74.51;99314.45;223196;195;137736;-62
2023/04/17 18:10:48;;;;;;;5.60;3.90;;;;;;;12.31;74.43;99319.66;223413;183;150891;-63
2023/04/17 18:15:52;;;;;;;6.60;3.70;;;;;;;12.27;74.62;99324.40;223540;182;138305;-61
2023/04/17 18:20:55;;;;;;;4.80;3.10;;;;;;;12.30;74.68;99324.71;223432;183;140959;-62
2023/04/17 18:25:59;;;;;;;4.20;2.90;;;;;;;12.35;74.23;99330.30;223307;183;147323;-62
2023/04/17 18:31:02;;;;;;;4.70;2.90;;;;;;;12.29;74.06;99332.24;223353;183;141089;-65
2023/04/17 18:36:06;;;;;;;4.40;3.20;;;;;;;12.27;74.13;99332.59;223365;182;138904;-62
2023/04/17 18:41:09;;;;;;;6.30;3.20;;;;;;;12.22;74.31;99325.05;223418;216;148429;-63
2023/04/17 18:46:12;;;;;;;4.90;3.10;;;;;;;12.18;74.41;99326.23;223400;184;139074;-62
2023/04/17 18:51:16;;;;;;;4.10;2.80;;;;;;;12.19;74.56;99327.91;223389;184;141475;-61
2023/04/17 18:56:19;;;;;;;4.20;3.20;;;;;;;12.19;74.35;99322.40;223415;183;147868;-62
2023/04/17 19:01:23;;;;;;;4.80;3.10;;;;;;;12.17;74.42;99321.88;223384;183;139195;-61
2023/04/17 19:06:26;;;;;;;175.00;125.80;;;;;;;12.23;75.09;99324.08;223420;216;137052;-63
2023/04/17 19:11:30;;;;;;;6.10;4.50;;;;;;;12.31;74.36;99325.92;223475;184;147121;-61
2023/04/17 19:16:33;;;;;;;5.00;3.40;;;;;;;12.23;74.17;99324.67;223415;184;138124;-63
2023/04/17 19:21:37;;;;;;;4.90;3.50;;;;;;;12.14;74.12;99319.71;223488;183;137422;-63
2023/04/17 19:26:49;;;;;;;4.90;3.70;;;;;;;12.17;74.31;99318.82;223396;182;147632;-64
2023/04/17 19:31:52;;;;;;;5.50;3.90;;;;;;;12.12;74.22;99319.14;223312;183;138041;-63
2023/04/17 19:36:55;;;;;;;7.20;4.30;;;;;;;12.10;74.31;99318.39;223406;182;137658;-61
2023/04/17 19:41:58;;;;;;;5.60;3.80;;;;;;;12.02;74.24;99316.55;223486;216;146795;-63
2023/04/17 19:47:02;;;;;;;5.00;3.60;;;;;;;11.96;74.47;99312.35;223419;183;140628;-63
2023/04/17 19:52:05;;;;;;;5.50;3.70;;;;;;;11.94;74.60;99314.59;223415;183;137438;-62
2023/04/17 19:57:08;;;;;;;5.80;3.70;;;;;;;11.89;74.68;99310.80;223435;182;146975;-60
2023/04/17 20:02:11;;;;;;;6.00;4.20;;;;;;;11.86;74.88;99308.50;223335;183;138753;-62
2023/04/17 20:07:14;;;;;;;6.00;4.20;;;;;;;11.83;74.96;99307.93;223505;182;137179;-61
2023/04/17 20:12:19;;;;;;;5.40;3.90;;;;;;;11.82;74.83;99307.14;223409;182;146892;-62
2023/04/17 20:17:22;;;;;;;7.20;4.30;;;;;;;11.79;75.10;99303.94;223494;216;139562;-61
2023/04/17 20:22:25;;;;;;;5.70;4.10;;;;;;;11.82;75.14;99304.66;223499;182;137999;-63
2023/04/17 20:27:34;;;;;;;6.20;4.40;;;;;;;11.86;75.00;99303.91;223416;183;147034;-62
2023/04/17 20:32:37;;;;;;;6.00;4.60;;;;;;;11.88;74.86;99306.60;223369;183;139166;-63
2023/04/17 20:37:43;;;;;;;6.70;4.50;;;;;;;11.88;74.78;99305.16;223370;216;138080;-63
2023/04/17 20:42:46;;;;;;;4.60;4.00;;;;;;;11.86;74.60;99303.16;223454;183;147094;-62
2023/04/17 20:47:49;;;;;;;5.10;4.00;;;;;;;11.82;74.67;99303.75;223387;183;141612;-62
2023/04/17 20:52:55;;;;;;;7.80;5.10;;;;;;;11.91;74.73;99304.29;223404;183;137571;-61
2023/04/17 20:58:01;;;;;;;;;;;;;;;11.97;74.53;99300.52;223356;183;148112;-62
2023/04/17 21:03:04;;;;;;;6.50;4.50;;;;;;;11.96;74.39;99301.45;223432;183;138543;-65
2023/04/17 21:08:07;;;;;;;6.70;5.00;;;;;;;11.96;74.32;99306.09;223373;184;138528;-61
2023/04/17 21:13:10;;;;;;;5.10;4.30;;;;;;;11.89;74.19;99307.59;223383;186;148570;-62
2023/04/17 21:18:13;;;;;;;5.40;4.10;;;;;;;11.81;74.46;99309.16;223383;189;138527;-61
2023/04/17 21:23:16;;;;;;;5.80;4.60;;;;;;;11.83;74.62;99303.15;223415;216;137478;-61
2023/04/17 21:28:19;;;;;;;5.40;4.30;;;;;;;11.80;74.66;99302.42;223421;182;147203;-62
2023/04/17 21:33:27;;;;;;;6.10;4.90;;;;;;;11.83;74.72;99300.88;223399;183;138807;-63
2023/04/17 21:38:34;;;;;;;6.60;4.90;;;;;;;11.81;74.77;99296.67;223371;216;137817;-62
2023/04/17 21:43:37;;;;;;;6.30;4.50;;;;;;;11.77;74.74;99297.48;223414;183;146841;-61
2023/04/17 21:48:40;;;;;;;6.40;3.90;;;;;;;11.73;74.90;99295.42;223357;216;139758;-61
2023/04/17 21:53:43;;;;;;;6.30;4.70;;;;;;;11.74;75.07;99299.25;223484;213;138265;-61
2023/04/17 21:58:50;;;;;;;7.10;4.40;;;;;;;11.79;75.14;99295.02;223430;182;147111;-61
2023/04/17 22:03:53;;;;;;;6.10;4.40;;;;;;;11.82;75.12;99298.21;223444;184;138503;-62
2023/04/17 22:08:56;;;;;;;6.40;4.70;;;;;;;11.77;75.07;99293.73;223371;183;137983;-62
2023/04/17 22:13:59;;;;;;;5.50;4.20;;;;;;;11.73;75.31;99292.24;223450;184;147100;-62
2023/04/17 22:19:03;;;;;;;4.90;3.70;;;;;;;11.72;75.37;99290.34;223388;184;138585;-62
2023/04/17 22:24:07;;;;;;;6.60;4.10;;;;;;;11.74;75.52;99294.81;223396;182;150387;-61
2023/04/17 22:29:10;;;;;;;4.90;4.20;;;;;;;11.75;75.40;99298.15;223547;193;147853;-63
2023/04/17 22:34:14;;;;;;;6.80;4.50;;;;;;;11.70;75.43;99296.32;223441;183;138698;-61
2023/04/17 22:39:17;;;;;;;4.80;4.20;;;;;;;11.69;75.75;99297.10;223484;183;137283;-62
2023/04/17 22:44:20;;;;;;;6.50;4.30;;;;;;;11.69;75.74;99293.55;223459;183;147695;-62
2023/04/17 22:49:23;;;;;;;5.40;3.80;;;;;;;11.68;75.82;99297.52;223364;183;141935;-62
2023/04/17 22:54:26;;;;;;;8.10;5.10;;;;;;;11.69;75.96;99298.71;223442;183;139824;-62
2023/04/17 22:59:30;;;;;;;5.70;4.70;;;;;;;11.71;75.97;99298.94;223482;205;146852;-62
2023/04/17 23:04:33;;;;;;;7.50;5.30;;;;;;;11.68;75.97;99304.30;223399;205;138323;-62
2023/04/17 23:15:18;;;;;;;7.30;5.20;;;;;;;11.62;76.22;99300.92;223482;183;147044;-59
2023/04/17 23:20:23;;;;;;;6.50;5.20;;;;;;;11.66;76.32;99297.68;223401;183;139068;-61
2023/04/17 23:25:26;;;;;;;7.20;5.50;;;;;;;11.66;76.28;99293.59;223437;188;142199;-60
2023/04/17 23:30:29;;;;;;;8.70;6.20;;;;;;;11.69;76.40;99291.62;223412;184;147703;-61
2023/04/17 23:35:32;;;;;;;6.80;6.00;;;;;;;11.71;76.35;99284.86;223540;182;138632;-61
2023/04/17 23:40:36;;;;;;;8.20;5.60;;;;;;;11.70;76.24;99282.48;223569;183;139897;-61
2023/04/17 23:45:39;;;;;;;7.40;5.60;;;;;;;11.69;76.32;99286.80;223607;183;147744;-60